TimeCDT,TemperatureF,Dew PointF,Humidity,Sea Level PressureIn,VisibilityMPH,Wind Direction,Wind SpeedMPH,Gust SpeedMPH,PrecipitationIn,Events,Conditions,WindDirDegrees,DateUTC
12:15 AM,35.6,26.4,69,29.91,10.0,NNW,3.5,-,N/A,,Clear,330,2012-11-01 05:15:00
12:35 AM,38.1,25.9,61,29.92,10.0,NW,3.5,-,N/A,,Clear,310,2012-11-01 05:35:00
12:55 AM,37.6,25.7,62,29.91,10.0,NW,3.5,-,N/A,,Clear,310,2012-11-01 05:55:00
1:15 AM,34.3,25.7,71,29.91,10.0,Calm,Calm,-,N/A,,Clear,0,2012-11-01 06:15:00
1:35 AM,34.7,25.7,70,29.92,10.0,Calm,Calm,-,N/A,,Clear,0,2012-11-01 06:35:00
1:55 AM,34.2,25.2,70,29.93,10.0,Calm,Calm,-,N/A,,Clear,0,2012-11-01 06:55:00
2:15 AM,33.4,25.3,72,29.93,10.0,Calm,Calm,-,N/A,,Clear,0,2012-11-01 07:15:00
2:35 AM,34.3,25.2,69,29.93,10.0,Calm,Calm,-,N/A,,Clear,0,2012-11-01 07:35:00
2:55 AM,37.4,24.8,60,29.94,10.0,NW,3.5,-,N/A,,Clear,320,2012-11-01 07:55:00
3:15 AM,35.6,25.5,67,29.93,10.0,Calm,Calm,-,N/A,,Clear,0,2012-11-01 08:15:00
3:35 AM,34.3,25.5,70,29.93,10.0,Calm,Calm,-,N/A,,Scattered Clouds,0,2012-11-01 08:35:00
3:55 AM,35.2,25.0,66,29.92,10.0,Calm,Calm,-,N/A,,Clear,0,2012-11-01 08:55:00
4:15 AM,34.5,25.0,68,29.91,10.0,Calm,Calm,-,N/A,,Scattered Clouds,0,2012-11-01 09:15:00
4:35 AM,35.2,26.2,70,29.91,10.0,Calm,Calm,-,N/A,,Overcast,0,2012-11-01 09:35:00
4:55 AM,33.8,26.1,73,29.91,10.0,Calm,Calm,-,N/A,,Overcast,0,2012-11-01 09:55:00
5:15 AM,35.1,27.0,72,29.92,10.0,Calm,Calm,-,N/A,,Overcast,0,2012-11-01 10:15:00
5:35 AM,34.9,27.3,74,29.93,10.0,Calm,Calm,-,N/A,,Overcast,0,2012-11-01 10:35:00
5:55 AM,35.4,27.1,72,29.93,10.0,Calm,Calm,-,N/A,,Overcast,0,2012-11-01 10:55:00
6:15 AM,33.1,28.4,83,29.93,10.0,South,3.5,-,N/A,,Overcast,190,2012-11-01 11:15:00
6:35 AM,35.2,26.4,70,29.93,10.0,Calm,Calm,-,N/A,,Mostly Cloudy,0,2012-11-01 11:35:00
6:55 AM,35.6,26.6,70,29.93,10.0,Calm,Calm,-,N/A,,Scattered Clouds,0,2012-11-01 11:55:00
7:15 AM,35.6,26.6,70,29.93,10.0,Calm,Calm,-,N/A,,Mostly Cloudy,0,2012-11-01 12:15:00
7:35 AM,36.0,27.1,70,29.93,10.0,Calm,Calm,-,N/A,,Overcast,0,2012-11-01 12:35:00
7:55 AM,36.9,27.7,69,29.93,10.0,Calm,Calm,-,N/A,,Mostly Cloudy,0,2012-11-01 12:55:00
8:15 AM,35.6,28.4,75,29.94,10.0,Calm,Calm,-,N/A,,Scattered Clouds,0,2012-11-01 13:15:00
8:35 AM,38.3,29.3,70,29.95,10.0,South,3.5,-,N/A,,Clear,180,2012-11-01 13:35:00
8:55 AM,40.8,29.5,64,29.95,10.0,SSW,3.5,-,N/A,,Scattered Clouds,210,2012-11-01 13:55:00
9:15 AM,43.2,28.6,56,29.95,10.0,Calm,Calm,-,N/A,,Scattered Clouds,0,2012-11-01 14:15:00
9:35 AM,44.8,29.7,55,29.95,10.0,Calm,Calm,-,N/A,,Clear,0,2012-11-01 14:35:00
9:55 AM,48.4,29.5,48,29.94,10.0,Calm,Calm,-,N/A,,Clear,0,2012-11-01 14:55:00
10:15 AM,50.2,30.0,46,29.95,10.0,WSW,4.6,-,N/A,,Scattered Clouds,240,2012-11-01 15:15:00
10:35 AM,52.5,30.0,42,29.94,10.0,West,3.5,-,N/A,,Clear,280,2012-11-01 15:35:00
10:55 AM,54.0,31.3,42,29.94,10.0,WNW,4.6,-,N/A,,Clear,300,2012-11-01 15:55:00
11:15 AM,54.7,30.7,40,29.94,10.0,West,5.8,-,N/A,,Scattered Clouds,280,2012-11-01 16:15:00
11:35 AM,55.2,30.0,38,29.93,10.0,Calm,Calm,-,N/A,,Mostly Cloudy,0,2012-11-01 16:35:00
11:55 AM,55.9,31.8,40,29.93,10.0,Calm,Calm,-,N/A,,Overcast,0,2012-11-01 16:55:00
12:15 PM,56.3,31.3,39,29.92,10.0,SW,4.6,-,N/A,,Overcast,230,2012-11-01 17:15:00
12:35 PM,56.3,32.2,40,29.91,10.0,SSW,4.6,-,N/A,,Mostly Cloudy,210,2012-11-01 17:35:00
12:55 PM,57.2,32.0,38,29.90,10.0,SW,6.9,-,N/A,,Scattered Clouds,230,2012-11-01 17:55:00
1:15 PM,56.5,32.5,40,29.88,10.0,SSW,4.6,-,N/A,,Mostly Cloudy,200,2012-11-01 18:15:00
1:35 PM,56.8,30.2,36,29.87,10.0,SSW,3.5,-,N/A,,Overcast,210,2012-11-01 18:35:00
1:55 PM,57.9,30.2,35,29.87,10.0,SW,6.9,-,N/A,,Overcast,230,2012-11-01 18:55:00
2:15 PM,58.1,31.3,36,29.86,10.0,SW,5.8,-,N/A,,Overcast,230,2012-11-01 19:15:00
2:35 PM,58.3,32.7,38,29.85,10.0,SW,4.6,-,N/A,,Overcast,220,2012-11-01 19:35:00
2:55 PM,59.5,34.2,39,29.84,10.0,West,6.9,-,N/A,,Overcast,260,2012-11-01 19:55:00
3:15 PM,59.5,34.9,40,29.83,10.0,West,5.8,-,N/A,,Overcast,260,2012-11-01 20:15:00
3:35 PM,59.0,33.8,39,29.83,10.0,West,5.8,-,N/A,,Overcast,260,2012-11-01 20:35:00
3:55 PM,59.2,35.6,41,29.83,10.0,West,3.5,-,N/A,,Overcast,270,2012-11-01 20:55:00
4:15 PM,58.5,34.9,41,29.83,10.0,WSW,4.6,-,N/A,,Mostly Cloudy,250,2012-11-01 21:15:00
4:35 PM,60.8,35.6,39,29.82,7.0,Calm,Calm,-,N/A,,Scattered Clouds,0,2012-11-01 21:35:00
4:55 PM,60.1,34.7,39,29.83,10.0,WSW,4.6,-,N/A,,Clear,240,2012-11-01 21:55:00
5:15 PM,59.0,37.0,44,29.83,10.0,West,6.9,-,N/A,,Clear,280,2012-11-01 22:15:00
5:35 PM,57.7,38.1,48,29.83,10.0,WNW,4.6,-,N/A,,Clear,290,2012-11-01 22:35:00
5:55 PM,56.1,38.1,51,29.83,10.0,WNW,5.8,-,N/A,,Clear,290,2012-11-01 22:55:00
6:15 PM,54.5,37.8,53,29.84,10.0,West,4.6,-,N/A,,Clear,280,2012-11-01 23:15:00
6:35 PM,53.1,37.4,55,29.84,10.0,Calm,Calm,-,N/A,,Clear,0,2012-11-01 23:35:00
6:55 PM,49.3,37.6,64,29.84,10.0,Calm,Calm,-,N/A,,Clear,0,2012-11-01 23:55:00
7:15 PM,45.3,37.2,73,29.85,7.0,Calm,Calm,-,N/A,,Clear,0,2012-11-02 00:15:00
7:35 PM,44.8,37.2,75,29.85,7.0,Calm,Calm,-,N/A,,Clear,0,2012-11-02 00:35:00
7:55 PM,47.3,37.4,68,29.86,10.0,WNW,4.6,-,N/A,,Clear,290,2012-11-02 00:55:00
8:15 PM,47.8,37.0,66,29.87,10.0,Calm,Calm,-,N/A,,Clear,0,2012-11-02 01:15:00
8:35 PM,43.2,36.5,77,29.88,10.0,Calm,Calm,-,N/A,,Clear,0,2012-11-02 01:35:00
8:55 PM,43.9,36.7,76,29.88,10.0,Calm,Calm,-,N/A,,Clear,0,2012-11-02 01:55:00
9:15 PM,41.5,35.8,80,29.89,7.0,Calm,Calm,-,N/A,,Clear,0,2012-11-02 02:15:00
9:35 PM,41.9,35.4,78,29.89,10.0,Calm,Calm,-,N/A,,Clear,0,2012-11-02 02:35:00
9:55 PM,43.2,35.1,73,29.89,10.0,NNW,4.6,-,N/A,,Clear,330,2012-11-02 02:55:00
10:15 PM,45.5,34.3,65,29.90,10.0,NNW,5.8,-,N/A,,Clear,330,2012-11-02 03:15:00
10:35 PM,45.0,34.3,66,29.91,10.0,NNW,5.8,-,N/A,,Clear,340,2012-11-02 03:35:00
10:55 PM,44.2,34.3,68,29.91,10.0,NNW,3.5,-,N/A,,Clear,330,2012-11-02 03:55:00
11:15 PM,41.4,33.8,74,29.92,10.0,Calm,Calm,-,N/A,,Clear,0,2012-11-02 04:15:00
11:35 PM,40.5,33.1,75,29.93,10.0,Calm,Calm,-,N/A,,Clear,0,2012-11-02 04:35:00
11:55 PM,41.7,33.8,73,29.93,10.0,NNW,3.5,-,N/A,,Clear,330,2012-11-02 04:55:00